createdAt,value
2023-01-05T17:01:48.378Z,11.15
2023-01-05T17:06:51.856Z,10.95
2023-01-05T17:11:54.691Z,11.73
2023-01-05T17:17:02.852Z,12.52
2023-01-05T17:22:07.704Z,11.43
2023-01-05T17:32:20.780Z,10.55
2023-01-05T17:37:23.660Z,11.90
2023-01-05T17:42:44.315Z,13.88
2023-01-05T17:47:47.699Z,14.30
2023-01-05T17:52:50.590Z,15.00
2023-01-05T17:57:53.242Z,21.27
2023-01-05T18:02:56.420Z,14.80
2023-01-05T18:07:59.450Z,13.55
2023-01-05T18:13:02.279Z,13.38
2023-01-05T18:18:05.123Z,14.65
2023-01-05T18:23:08.676Z,13.93
2023-01-05T18:28:11.486Z,14.03
2023-01-05T18:33:14.152Z,11.88
2023-01-05T18:38:17.087Z,13.98
2023-01-05T18:43:19.834Z,11.65
2023-01-05T18:48:23.029Z,13.52
2023-01-05T18:53:25.873Z,12.02
2023-01-05T18:58:28.826Z,13.20
2023-01-05T19:03:31.783Z,13.02
2023-01-05T19:08:34.665Z,12.75
2023-01-05T19:13:38.110Z,16.02
2023-01-05T19:18:41.048Z,11.73
2023-01-05T19:23:43.783Z,10.35
2023-01-05T19:28:46.449Z,9.02
2023-01-05T19:33:50.021Z,8.45
2023-01-05T19:38:55.649Z,9.77
2023-01-05T19:43:58.530Z,8.52
2023-01-05T19:49:01.352Z,8.75
2023-01-05T19:54:05.146Z,4.13
2023-01-05T19:59:13.491Z,7.47
2023-01-05T20:04:16.391Z,5.85
2023-01-05T20:09:19.811Z,8.02
2023-01-05T20:14:27.640Z,7.50
2023-01-05T20:19:31.599Z,5.80
2023-01-05T20:24:36.517Z,9.25
2023-01-05T20:29:40.815Z,8.70
2023-01-05T20:34:45.416Z,9.18
2023-01-05T20:44:51.173Z,7.43
2023-01-05T20:49:53.865Z,6.93
2023-01-05T20:54:56.829Z,7.35
2023-01-05T20:59:59.405Z,7.50
2023-01-05T21:05:02.290Z,8.25
2023-01-05T21:10:05.460Z,5.68
2023-01-05T21:15:08.721Z,7.80
2023-01-05T21:20:11.458Z,6.97
2023-01-05T21:25:14.573Z,7.55
2023-01-05T21:30:17.785Z,8.27
2023-01-05T21:35:20.472Z,6.00
2023-01-05T21:40:24.359Z,5.85
2023-01-05T21:45:27.106Z,6.10
2023-01-05T21:50:48.412Z,6.65
2023-01-05T21:56:09.845Z,6.07
2023-01-05T22:01:12.890Z,8.07
2023-01-05T22:06:15.640Z,8.98
2023-01-05T22:11:18.329Z,9.43
2023-01-05T22:16:21.093Z,8.88
2023-01-05T22:21:23.856Z,7.35
2023-01-05T22:26:26.601Z,7.10
2023-01-05T22:31:30.624Z,6.75
2023-01-05T22:36:33.348Z,7.53
2023-01-05T22:41:36.192Z,9.15
2023-01-05T22:46:38.835Z,9.88
2023-01-05T22:51:41.624Z,7.60
2023-01-05T22:56:44.225Z,9.00
2023-01-05T23:01:48.075Z,8.68
2023-01-05T23:06:50.723Z,9.73
2023-01-05T23:11:53.642Z,9.27
2023-01-05T23:16:56.408Z,9.88
2023-01-05T23:22:02.202Z,10.50
2023-01-05T23:27:04.819Z,11.48
2023-01-05T23:32:07.575Z,9.98
2023-01-05T23:37:10.306Z,8.90
2023-01-05T23:42:32.938Z,10.93
2023-01-05T23:47:35.561Z,10.30
2023-01-05T23:52:38.225Z,9.82
2023-01-05T23:57:40.873Z,9.50
